Time;durP1;ratioP1;P1;durP2;ratioP2;P2;SDS_P1;SDS_P2;PMS_P1;PMS_P2;Temp;Humidity;BMP_temperature;BMP_pressure;BME280_temperature;BME280_humidity;BME280_pressure;Samples;Min_cycle;Max_cycle;Signal;HPM_P1;HPM_P2
2022/08/05 00:00:25;;;;;;;7.60;3.67;;;;;;;20.36;100.00;95557.47;1034342;28;20026;-70
2022/08/05 00:00:56;;;;;;;4.32;3.10;;;;;;;20.36;100.00;95554.81;1030441;28;20693;-73
2022/08/05 00:01:26;;;;;;;6.18;3.40;;;;;;;20.34;100.00;95549.00;1028181;28;20082;-71
2022/08/05 00:01:57;;;;;;;8.38;3.30;;;;;;;20.32;100.00;95552.00;1030348;28;20022;-70
2022/08/05 00:02:27;;;;;;;7.22;3.58;;;;;;;20.25;100.00;95535.75;1030363;28;20030;-70
2022/08/05 00:02:58;;;;;;;8.50;3.58;;;;;;;20.31;100.00;95549.66;1033130;28;20041;-70
2022/08/05 00:03:28;;;;;;;12.73;4.07;;;;;;;20.29;100.00;95547.34;1034217;28;20154;-71
2022/08/05 00:03:59;;;;;;;12.65;3.72;;;;;;;20.30;100.00;95548.88;1030420;28;20054;-71
2022/08/05 00:04:29;;;;;;;10.20;3.92;;;;;;;20.29;100.00;95550.00;1029769;28;20125;-71
2022/08/05 00:04:59;;;;;;;10.48;4.25;;;;;;;20.29;100.00;95551.88;1025769;28;20029;-71
2022/08/05 00:05:30;;;;;;;5.00;3.67;;;;;;;20.26;100.00;95550.66;1024003;28;20030;-71
2022/08/05 00:06:00;;;;;;;4.68;3.67;;;;;;;20.27;100.00;95549.53;1030227;28;20810;-71
2022/08/05 00:06:31;;;;;;;9.73;3.95;;;;;;;20.26;100.00;95548.00;1032260;28;20450;-72
2022/08/05 00:07:01;;;;;;;9.45;3.75;;;;;;;20.24;100.00;95544.88;1038478;28;20033;-71
2022/08/05 00:07:32;;;;;;;6.53;3.90;;;;;;;20.24;100.00;95540.31;1034222;28;20527;-71
2022/08/05 00:08:02;;;;;;;7.82;3.60;;;;;;;20.19;100.00;95532.53;1033149;28;20021;-73
2022/08/05 00:08:33;;;;;;;6.70;3.35;;;;;;;20.26;100.00;95542.66;1030199;28;20022;-71
2022/08/05 00:09:04;;;;;;;7.85;3.13;;;;;;;20.18;100.00;95530.19;1024404;28;20038;-71
2022/08/05 00:09:34;;;;;;;9.55;3.83;;;;;;;20.24;100.00;95535.00;1018199;29;20616;-72
2022/08/05 00:10:05;;;;;;;6.38;3.40;;;;;;;20.24;100.00;95540.31;1021623;28;20070;-71
2022/08/05 00:10:35;;;;;;;6.40;3.15;;;;;;;20.25;100.00;95543.75;1022398;28;20027;-72
2022/08/05 00:11:09;;;;;;;6.45;3.60;;;;;;;20.24;100.00;95540.31;1025835;28;20047;-71
2022/08/05 00:11:39;;;;;;;7.45;3.13;;;;;;;20.25;100.00;95541.91;1028734;28;20030;-71
2022/08/05 00:12:09;;;;;;;5.20;3.75;;;;;;;20.26;100.00;95537.34;1030711;28;20935;-71
2022/08/05 00:12:40;;;;;;;7.78;3.38;;;;;;;20.25;100.00;95538.44;1034430;28;20396;-70
2022/08/05 00:13:10;;;;;;;10.57;3.28;;;;;;;20.23;100.00;95538.00;1033189;28;20133;-71
2022/08/05 00:13:42;;;;;;;4.03;3.28;;;;;;;20.22;100.00;95531.09;1030215;28;20114;-72
2022/08/05 00:14:13;;;;;;;8.93;3.65;;;;;;;20.16;100.00;95522.53;1030325;28;20023;-71
2022/08/05 00:14:43;;;;;;;6.20;3.60;;;;;;;20.24;100.00;95528.88;1021143;29;20492;-71
2022/08/05 00:15:13;;;;;;;6.00;3.13;;;;;;;20.25;100.00;95535.75;1018367;29;20066;-72
2022/08/05 00:15:44;;;;;;;14.48;4.05;;;;;;;20.25;100.00;95535.75;1018482;29;20159;-71
2022/08/05 00:16:14;;;;;;;5.20;3.40;;;;;;;20.25;100.00;95535.75;1018391;28;20040;-71
2022/08/05 00:16:45;;;;;;;12.32;4.03;;;;;;;20.24;100.00;95536.88;1028488;28;20038;-70
2022/08/05 00:17:15;;;;;;;5.60;3.45;;;;;;;20.24;100.00;95532.31;1026527;28;20106;-70
2022/08/05 00:17:46;;;;;;;5.95;3.13;;;;;;;20.23;100.00;95532.66;1026405;28;20035;-71
2022/08/05 00:18:16;;;;;;;10.75;4.00;;;;;;;20.25;100.00;95539.22;1025020;28;20031;-72
2022/08/05 00:18:47;;;;;;;5.95;3.40;;;;;;;20.24;100.00;95537.66;1024241;28;20429;-71
2022/08/05 00:19:18;;;;;;;8.70;3.47;;;;;;;20.23;100.00;95532.66;1021937;28;20138;-71
2022/08/05 00:19:48;;;;;;;5.00;3.30;;;;;;;20.21;100.00;95534.88;1026556;28;20037;-71
2022/08/05 00:20:19;;;;;;;6.85;3.65;;;;;;;20.20;100.00;95533.31;1025954;28;20057;-71
2022/08/05 00:20:49;;;;;;;6.28;3.42;;;;;;;20.20;100.00;95535.97;1030273;28;20027;-70
2022/08/05 00:21:20;;;;;;;6.90;4.15;;;;;;;20.19;100.00;95537.88;1025494;28;20035;-71
2022/08/05 00:21:50;;;;;;;6.97;3.55;;;;;;;20.14;100.00;95535.41;1026528;28;20018;-72
2022/08/05 00:22:21;;;;;;;8.02;3.55;;;;;;;20.16;100.00;95533.19;1025794;28;20011;-72
2022/08/05 00:22:51;;;;;;;5.97;3.45;;;;;;;20.16;100.00;95530.53;1022468;28;20023;-72
2022/08/05 00:23:22;;;;;;;6.00;3.28;;;;;;;20.16;100.00;95537.75;1022234;29;20086;-71
2022/08/05 00:23:53;;;;;;;18.00;4.10;;;;;;;20.15;100.00;95534.28;1022235;28;20031;-71
2022/08/05 00:24:23;;;;;;;8.45;3.67;;;;;;;20.15;100.00;95536.19;1025904;28;20551;-71
2022/08/05 00:24:54;;;;;;;7.70;3.40;;;;;;;20.15;100.00;95541.50;1026485;28;20015;-71
2022/08/05 00:25:24;;;;;;;5.85;3.20;;;;;;;20.11;100.00;95525.41;1029999;28;20018;-72
2022/08/05 00:25:55;;;;;;;4.10;3.53;;;;;;;20.12;100.00;95534.16;1029720;28;20403;-71
2022/08/05 00:26:25;;;;;;;4.18;3.20;;;;;;;20.12;100.00;95531.50;1029962;28;20031;-71
2022/08/05 00:26:56;;;;;;;9.52;3.65;;;;;;;20.11;100.00;95532.63;1026389;28;20015;-72
2022/08/05 00:27:29;;;;;;;3.78;3.38;;;;;;;20.11;100.00;95530.72;1022288;28;20054;-72
2022/08/05 00:28:00;;;;;;;4.70;3.33;;;;;;;20.12;100.00;95526.97;1026324;28;20034;-71
2022/08/05 00:28:30;;;;;;;7.18;3.40;;;;;;;20.11;100.00;95535.28;1026601;28;20079;-70
2022/08/05 00:29:01;;;;;;;9.60;3.38;;;;;;;20.12;100.00;95534.97;1029784;28;20027;-71
2022/08/05 00:29:31;;;;;;;5.95;3.40;;;;;;;20.11;100.00;95529.94;1025480;28;20102;-71
2022/08/05 00:30:02;;;;;;;5.00;3.55;;;;;;;20.10;100.00;95528.41;1026059;28;20019;-71
2022/08/05 00:30:33;;;;;;;4.55;3.03;;;;;;;20.11;100.00;95529.94;1021898;28;20031;-71
2022/08/05 00:31:04;;;;;;;6.65;3.22;;;;;;;20.09;100.00;95521.53;1018005;28;20070;-71
2022/08/05 00:31:34;;;;;;;4.13;3.40;;;;;;;20.10;100.00;95526.50;1021926;29;20550;-70
2022/08/05 00:32:05;;;;;;;8.70;3.60;;;;;;;20.10;100.00;95528.41;1022356;28;20027;-71
2022/08/05 00:32:36;;;;;;;4.18;3.05;;;;;;;20.05;100.00;95525.94;1026140;28;20023;-72
2022/08/05 00:33:07;;;;;;;10.43;3.70;;;;;;;20.04;100.00;95525.16;1030157;28;20570;-71
2022/08/05 00:33:37;;;;;;;6.68;3.70;;;;;;;20.07;100.00;95529.84;1026466;28;20023;-71
2022/08/05 00:34:08;;;;;;;6.03;3.42;;;;;;;20.08;100.00;95525.28;1030136;28;20088;-72
2022/08/05 00:34:39;;;;;;;9.75;3.42;;;;;;;20.07;100.00;95527.16;1026079;28;20081;-72
2022/08/05 00:35:09;;;;;;;5.72;3.45;;;;;;;20.08;100.00;95530.59;1022351;28;20035;-71
2022/08/05 00:35:40;;;;;;;10.73;3.50;;;;;;;20.08;100.00;95527.94;1026108;28;20582;-71
2022/08/05 00:36:10;;;;;;;4.85;3.15;;;;;;;20.09;100.00;95532.19;1026287;28;20030;-71
2022/08/05 00:36:41;;;;;;;6.47;3.30;;;;;;;20.08;100.00;95526.06;1030100;28;20022;-70
2022/08/05 00:37:11;;;;;;;4.55;3.08;;;;;;;20.09;100.00;95526.84;1034264;28;20037;-72
2022/08/05 00:37:41;;;;;;;5.53;3.05;;;;;;;20.08;100.00;95528.72;1034119;28;20088;-72
2022/08/05 00:38:12;;;;;;;6.32;3.10;;;;;;;20.10;100.00;95533.72;1034215;28;20033;-71
2022/08/05 00:38:43;;;;;;;4.15;3.22;;;;;;;20.08;100.00;95526.06;1029991;28;20782;-70
2022/08/05 00:39:13;;;;;;;5.65;3.28;;;;;;;20.05;100.00;95515.28;1033121;28;20084;-71
2022/08/05 00:39:44;;;;;;;4.15;3.47;;;;;;;20.08;100.00;95525.28;1034215;28;20026;-70
2022/08/05 00:40:14;;;;;;;8.00;3.55;;;;;;;20.02;100.00;95516.72;1034316;28;20037;-71
2022/08/05 00:40:49;;;;;;;6.85;3.28;;;;;;;20.04;100.00;95514.50;1034141;28;20113;-72
2022/08/05 00:41:30;;;;;;;6.07;3.33;;;;;;;20.10;100.00;95523.06;1028816;28;20094;-71
2022/08/05 00:42:00;;;;;;;;;;;;;;;20.10;100.00;95529.19;1022639;29;20122;-72
2022/08/05 00:42:35;;;;;;;6.20;3.65;;;;;;;20.08;100.00;95519.94;1026011;28;20437;-71
2022/08/05 00:43:05;;;;;;;4.60;3.03;;;;;;;20.11;100.00;95524.63;1021166;29;20051;-71
2022/08/05 00:43:36;;;;;;;3.60;3.28;;;;;;;20.11;100.00;95521.97;1025133;28;20089;-72
2022/08/05 00:44:06;;;;;;;5.22;3.33;;;;;;;20.05;100.00;95517.94;1014116;29;20119;-71
2022/08/05 00:44:36;;;;;;;6.47;3.28;;;;;;;20.11;100.00;95524.63;1022258;28;20087;-72
2022/08/05 00:45:07;;;;;;;6.32;3.67;;;;;;;20.10;100.00;95521.19;1026166;28;20484;-72
2022/08/05 00:45:38;;;;;;;5.65;3.15;;;;;;;20.11;100.00;95524.63;1030185;28;20049;-71
2022/08/05 00:46:08;;;;;;;5.82;3.70;;;;;;;20.10;100.00;95517.75;1029294;28;20546;-71
2022/08/05 00:46:39;;;;;;;7.18;3.00;;;;;;;20.10;100.00;95523.84;1026210;28;20027;-71
2022/08/05 00:47:09;;;;;;;7.38;3.45;;;;;;;20.12;100.00;95523.50;1026040;28;20029;-72
2022/08/05 00:47:40;;;;;;;7.95;3.30;;;;;;;20.11;100.00;95529.94;1024198;28;20471;-71
2022/08/05 00:48:14;;;;;;;4.55;3.42;;;;;;;20.08;100.00;95517.28;1026135;28;20078;-71
2022/08/05 00:48:45;;;;;;;7.45;3.08;;;;;;;20.06;100.00;95516.84;1021649;29;20524;-71
2022/08/05 00:49:18;;;;;;;13.55;3.78;;;;;;;20.11;100.00;95521.97;1015293;29;20036;-71
2022/08/05 00:49:48;;;;;;;7.45;4.20;;;;;;;20.11;100.00;95524.63;1019098;29;20035;-71
2022/08/05 00:50:19;;;;;;;7.45;3.90;;;;;;;20.10;100.00;95520.41;1019469;28;20641;-71
2022/08/05 00:50:50;;;;;;;8.70;3.65;;;;;;;20.05;100.00;95521.38;1026444;28;20049;-72
2022/08/05 00:51:20;;;;;;;6.53;3.70;;;;;;;20.01;100.00;95510.59;1021346;29;20023;-71
2022/08/05 00:51:51;;;;;;;7.30;3.33;;;;;;;20.06;100.00;95522.97;1018437;29;20562;-71
2022/08/05 00:52:21;;;;;;;13.73;4.00;;;;;;;20.06;100.00;95527.50;1022198;29;20546;-71
2022/08/05 00:52:52;;;;;;;9.00;3.90;;;;;;;20.04;100.00;95529.72;1024902;28;20019;-71
2022/08/05 00:53:23;;;;;;;13.43;4.60;;;;;;;20.03;100.00;95523.59;1030228;28;20033;-70
2022/08/05 00:53:53;;;;;;;12.48;3.70;;;;;;;20.02;100.00;95530.81;1030085;28;20096;-73
2022/08/05 00:54:23;;;;;;;11.57;4.00;;;;;;;20.00;100.00;95527.69;1030056;28;20022;-72
2022/08/05 00:54:54;;;;;;;17.15;4.10;;;;;;;19.90;100.00;95508.69;1026121;28;20448;-71
2022/08/05 00:55:24;;;;;;;4.45;3.33;;;;;;;19.96;100.00;95526.81;1022252;28;20449;-71
2022/08/05 00:55:55;;;;;;;6.95;3.30;;;;;;;19.97;100.00;95525.69;1030089;28;20026;-70
2022/08/05 00:56:25;;;;;;;7.28;3.75;;;;;;;19.96;100.00;95529.47;1026211;28;20128;-71
2022/08/05 00:56:56;;;;;;;7.32;3.45;;;;;;;19.95;100.00;95527.91;1022423;28;20035;-73
2022/08/05 00:57:26;;;;;;;5.95;3.45;;;;;;;19.95;100.00;95527.91;1030088;28;20026;-72
2022/08/05 00:57:57;;;;;;;4.38;3.50;;;;;;;19.94;100.00;95530.91;1028679;28;20022;-71
2022/08/05 00:58:27;;;;;;;4.22;3.20;;;;;;;19.87;100.00;95523.44;1034338;28;20052;-70
2022/08/05 00:58:58;;;;;;;4.68;3.50;;;;;;;19.92;100.00;95539.22;1034323;28;20029;-70
2022/08/05 00:59:28;;;;;;;4.90;3.13;;;;;;;19.91;100.00;95527.00;1031481;28;20022;-71
2022/08/05 00:59:58;;;;;;;7.32;3.13;;;;;;;19.91;100.00;95529.66;1034242;28;20079;-71
2022/08/05 01:00:29;;;;;;;5.70;3.42;;;;;;;19.92;100.00;95531.22;1030198;28;20423;-71
2022/08/05 01:01:00;;;;;;;5.95;3.58;;;;;;;19.89;100.00;95526.56;1030237;28;20013;-71
2022/08/05 01:01:30;;;;;;;3.88;3.17;;;;;;;19.86;100.00;95527.22;1025473;28;20022;-71
2022/08/05 01:02:00;;;;;;;6.03;3.55;;;;;;;19.88;100.00;95524.22;1022123;29;20122;-72
2022/08/05 01:02:31;;;;;;;9.38;3.40;;;;;;;19.88;100.00;95527.66;1022125;28;20451;-71
2022/08/05 01:03:01;;;;;;;7.55;3.38;;;;;;;19.86;100.00;95524.53;1028345;28;20038;-71
2022/08/05 01:03:32;;;;;;;4.63;3.30;;;;;;;19.85;100.00;95528.31;1030044;28;20023;-70
2022/08/05 01:04:02;;;;;;;4.60;3.63;;;;;;;19.80;100.00;95520.53;1029943;28;20069;-71
2022/08/05 01:04:33;;;;;;;7.03;4.25;;;;;;;19.84;100.00;95526.75;1029895;28;20030;-71
2022/08/05 01:05:03;;;;;;;6.32;3.63;;;;;;;19.85;100.00;95528.31;1030155;28;20459;-71
2022/08/05 01:05:34;;;;;;;4.45;3.80;;;;;;;19.85;100.00;95528.31;1026053;28;20037;-71
2022/08/05 01:06:05;;;;;;;7.35;3.20;;;;;;;19.85;100.00;95524.84;1021853;29;20023;-71
2022/08/05 01:06:35;;;;;;;4.65;3.72;;;;;;;19.83;100.00;95527.84;1014378;29;20498;-71
2022/08/05 01:07:06;;;;;;;7.75;4.28;;;;;;;19.82;100.00;95522.84;1014419;29;20047;-72
2022/08/05 01:07:36;;;;;;;6.30;3.75;;;;;;;19.81;100.00;95527.41;1014596;29;20505;-72
2022/08/05 01:08:07;;;;;;;9.65;3.67;;;;;;;19.80;100.00;95525.06;1024191;28;20035;-71
2022/08/05 01:08:37;;;;;;;7.32;3.60;;;;;;;19.78;100.00;95522.72;1030054;28;20018;-71
2022/08/05 01:09:08;;;;;;;9.95;4.05;;;;;;;19.77;100.00;95518.50;1030206;28;20046;-71
2022/08/05 01:09:38;;;;;;;10.32;4.32;;;;;;;19.77;100.00;95521.19;1030347;28;20484;-71
2022/08/05 01:10:09;;;;;;;9.63;3.92;;;;;;;19.76;100.00;95524.94;1021934;28;20053;-71
2022/08/05 01:10:42;;;;;;;5.50;3.58;;;;;;;19.74;100.00;95521.81;1022139;29;20544;-70
2022/08/05 01:11:20;;;;;;;7.50;3.50;;;;;;;19.73;100.00;95520.28;1017585;29;20425;-71
2022/08/05 01:11:52;;;;;;;7.07;3.58;;;;;;;19.73;100.00;95517.59;1023516;28;20030;-71
2022/08/05 01:12:23;;;;;;;3.65;3.30;;;;;;;19.65;100.00;95510.47;1018049;29;20208;-72
2022/08/05 01:12:55;;;;;;;9.25;3.70;;;;;;;19.70;100.00;95521.69;1026060;28;20448;-71
2022/08/05 01:13:33;;;;;;;6.88;4.18;;;;;;;19.71;100.00;95511.81;1025950;28;20034;-71
2022/08/05 01:14:12;;;;;;;10.02;4.25;;;;;;;19.68;100.00;95512.47;1018205;29;20027;-71
2022/08/05 01:14:58;;;;;;;4.78;3.75;;;;;;;19.68;100.00;95517.78;1017993;29;20059;-71
2022/08/05 01:15:32;;;;;;;11.57;4.00;;;;;;;19.66;100.00;95514.69;1022075;29;20043;-71
2022/08/05 01:16:04;;;;;;;10.70;3.70;;;;;;;19.62;100.00;95508.44;1025765;28;20018;-70
2022/08/05 01:16:47;;;;;;;8.50;3.78;;;;;;;19.66;100.00;95515.47;1027359;28;20034;-71
2022/08/05 01:17:22;;;;;;;10.82;4.35;;;;;;;19.61;100.00;95512.19;1026135;28;20019;-71
2022/08/05 01:18:04;;;;;;;6.35;3.80;;;;;;;19.61;100.00;95517.50;1026067;28;20141;-71
2022/08/05 01:18:38;;;;;;;6.95;3.60;;;;;;;19.60;100.00;95511.41;1021208;29;20741;-71
2022/08/05 01:19:28;;;;;;;14.40;4.28;;;;;;;19.63;100.00;95516.13;1022202;29;20528;-71
2022/08/05 01:20:44;;;;;;;5.10;3.30;;;;;;;19.63;100.00;95525.97;1022358;28;20065;-71
2022/08/05 01:21:36;;;;;;;8.38;3.90;;;;;;;19.58;100.00;95521.59;1025368;28;20015;-72
2022/08/05 01:22:24;;;;;;;16.48;3.88;;;;;;;19.56;100.00;95526.47;1023560;28;20086;-70
2022/08/05 01:23:15;;;;;;;14.00;4.50;;;;;;;19.53;100.00;95517.25;1022982;28;20019;-69
2022/08/05 01:23:56;;;;;;;4.40;3.55;;;;;;;19.51;100.00;95521.34;1026902;28;20026;-69
2022/08/05 01:24:56;;;;;;;4.35;3.33;;;;;;;19.50;100.00;95527.78;1026210;28;20023;-71
2022/08/05 01:25:44;;;;;;;4.93;3.72;;;;;;;19.45;100.00;95523.44;1024411;28;20047;-71
2022/08/05 01:26:55;;;;;;;7.63;4.00;;;;;;;19.46;100.00;95522.31;1028249;28;20163;-69
2022/08/05 01:27:48;;;;;;;6.28;3.88;;;;;;;19.47;100.00;95521.22;1030094;28;20023;-71
2022/08/05 01:28:23;;;;;;;5.95;3.13;;;;;;;19.44;100.00;95518.44;1026160;28;20568;-70
2022/08/05 01:28:53;;;;;;;4.70;3.30;;;;;;;19.48;100.00;95522.78;1029669;28;20480;-71
2022/08/05 01:29:26;;;;;;;4.05;3.33;;;;;;;19.50;100.00;95525.88;1029084;28;20023;-70
2022/08/05 01:29:57;;;;;;;7.82;3.47;;;;;;;19.51;100.00;95524.78;1023049;28;20393;-70
2022/08/05 01:30:28;;;;;;;8.35;3.45;;;;;;;19.52;100.00;95522.91;1021835;29;20595;-70
2022/08/05 01:31:26;;;;;;;7.18;3.63;;;;;;;19.52;100.00;95529.03;1010083;29;20084;-69
2022/08/05 01:31:59;;;;;;;6.40;3.38;;;;;;;19.57;100.00;95524.59;1014149;29;20052;-71
2022/08/05 01:32:32;;;;;;;6.57;3.38;;;;;;;19.61;100.00;95525.50;1025021;28;20073;-71
2022/08/05 01:33:05;;;;;;;4.70;3.60;;;;;;;19.65;100.00;95523.78;1029817;28;20025;-71
2022/08/05 01:33:41;;;;;;;9.60;3.22;;;;;;;19.69;100.00;95519.38;1030034;28;20092;-71
2022/08/05 01:34:20;;;;;;;6.05;3.63;;;;;;;19.72;100.00;95522.16;1029053;28;20018;-71
2022/08/05 01:34:54;;;;;;;7.28;3.60;;;;;;;19.84;100.00;95516.09;1030156;28;20815;-70
2022/08/05 01:35:25;;;;;;;5.43;3.60;;;;;;;19.92;100.00;95515.25;1025911;28;20788;-71
2022/08/05 01:35:56;;;;;;;7.13;3.33;;;;;;;19.96;100.00;95513.50;1025736;28;20023;-71
2022/08/05 01:36:29;;;;;;;4.93;3.40;;;;;;;20.04;100.00;95513.72;1022097;29;20548;-71
2022/08/05 01:37:15;;;;;;;4.82;3.42;;;;;;;20.12;100.00;95516.31;1022472;28;20026;-70
2022/08/05 01:37:50;;;;;;;9.88;4.10;;;;;;;20.08;100.00;95512.72;1028205;28;20454;-71
2022/08/05 01:38:21;;;;;;;3.72;3.40;;;;;;;20.10;100.00;95507.09;1024337;28;20530;-71
2022/08/05 01:38:51;;;;;;;5.55;3.60;;;;;;;20.24;100.00;95510.22;1023324;29;20019;-71
2022/08/05 01:39:22;;;;;;;4.88;3.83;;;;;;;20.21;100.00;95508.22;1018265;29;20051;-72
2022/08/05 01:39:55;;;;;;;5.07;3.65;;;;;;;20.23;100.00;95516.69;1023208;29;20405;-71
2022/08/05 01:40:28;;;;;;;7.50;3.95;;;;;;;20.18;100.00;95508.88;1015537;29;20028;-70
2022/08/05 01:40:58;;;;;;;6.75;3.28;;;;;;;20.20;100.00;95514.66;1019274;29;20433;-71
2022/08/05 01:41:32;;;;;;;5.95;3.65;;;;;;;20.20;100.00;95512.00;1018602;29;20023;-70
2022/08/05 01:42:04;;;;;;;4.63;3.10;;;;;;;20.18;100.00;95509.66;1023419;29;20018;-72
2022/08/05 01:42:35;;;;;;;5.25;3.60;;;;;;;20.20;100.00;95514.66;1013452;29;20079;-70
2022/08/05 01:43:05;;;;;;;5.72;3.45;;;;;;;20.11;100.00;95511.31;1019415;29;20417;-71
2022/08/05 01:43:36;;;;;;;4.93;3.72;;;;;;;20.10;100.00;95502.53;1031091;28;20026;-71
2022/08/05 01:44:07;;;;;;;3.85;3.42;;;;;;;20.15;100.00;95514.88;1023227;29;20106;-70
2022/08/05 01:44:37;;;;;;;6.15;3.58;;;;;;;20.12;100.00;95512.84;1019368;29;20031;-70
2022/08/05 01:45:10;;;;;;;9.77;3.85;;;;;;;20.10;100.00;95515.84;1015492;29;20557;-70
2022/08/05 01:45:41;;;;;;;8.00;3.63;;;;;;;20.09;100.00;95511.66;1019179;29;20770;-71
2022/08/05 01:46:11;;;;;;;7.35;3.70;;;;;;;20.09;100.00;95516.97;1015307;29;20028;-70
2022/08/05 01:46:42;;;;;;;5.03;3.85;;;;;;;20.11;100.00;95516.63;1019370;29;20425;-72
2022/08/05 01:47:15;;;;;;;10.10;3.53;;;;;;;20.08;100.00;95515.41;1023410;28;20026;-71
2022/08/05 01:47:46;;;;;;;6.78;3.45;;;;;;;20.11;100.00;95516.63;1022273;28;20058;-72
2022/08/05 01:48:16;;;;;;;6.43;4.45;;;;;;;20.12;100.00;95504.88;1023118;28;20038;-71
2022/08/05 01:48:47;;;;;;;5.55;3.53;;;;;;;20.20;100.00;95517.34;1023249;29;20497;-72
2022/08/05 01:49:19;;;;;;;8.32;4.50;;;;;;;20.14;100.00;95514.09;1027300;28;20018;-72
2022/08/05 01:49:51;;;;;;;4.28;3.63;;;;;;;20.09;100.00;95505.53;1018518;29;20026;-71
2022/08/05 01:50:36;;;;;;;6.80;3.80;;;;;;;20.11;100.00;95516.63;1011535;29;20119;-71
2022/08/05 01:51:07;;;;;;;4.85;3.67;;;;;;;20.07;100.00;95515.75;1014580;29;20060;-71
2022/08/05 01:51:37;;;;;;;13.13;4.45;;;;;;;19.99;100.00;95512.84;1019248;29;20019;-71
2022/08/05 01:52:08;;;;;;;4.93;3.60;;;;;;;20.01;100.00;95515.94;1025169;28;20062;-71
2022/08/05 01:52:38;;;;;;;6.55;3.75;;;;;;;20.00;100.00;95519.72;1019904;28;20402;-71
2022/08/05 01:53:10;;;;;;;9.80;4.07;;;;;;;19.99;100.00;95522.72;1019364;29;20027;-71
2022/08/05 01:53:41;;;;;;;10.05;3.60;;;;;;;19.97;100.00;95531.00;1027385;28;20504;-71
2022/08/05 01:54:11;;;;;;;19.95;4.10;;;;;;;19.88;100.00;95514.31;1023131;29;20023;-71
2022/08/05 01:54:44;;;;;;;10.65;4.00;;;;;;;19.86;100.00;95516.56;1022998;28;20015;-71
2022/08/05 01:55:15;;;;;;;5.53;3.47;;;;;;;19.93;100.00;95526.69;1019453;29;20442;-71
2022/08/05 01:55:45;;;;;;;5.35;3.85;;;;;;;19.88;100.00;95524.97;1027271;28;20054;-70
2022/08/05 01:56:16;;;;;;;11.57;4.20;;;;;;;19.78;100.00;95518.19;1014109;29;20508;-71
2022/08/05 01:56:46;;;;;;;9.73;5.30;;;;;;;19.82;100.00;95531.63;1023008;29;20019;-71
2022/08/05 01:57:25;;;;;;;5.53;4.20;;;;;;;19.74;100.00;95521.81;1023303;28;20031;-71
2022/08/05 01:57:55;;;;;;;4.78;3.47;;;;;;;19.74;100.00;95533.25;1027053;28;20357;-71
2022/08/05 01:58:26;;;;;;;8.98;3.60;;;;;;;19.70;100.00;95526.25;1023288;29;20031;-72
2022/08/05 01:58:56;;;;;;;13.50;4.93;;;;;;;19.68;100.00;95526.56;1019307;29;20023;-71
2022/08/05 01:59:27;;;;;;;8.05;4.00;;;;;;;19.63;100.00;95525.97;1018727;29;20019;-72
2022/08/05 01:59:58;;;;;;;13.45;4.40;;;;;;;19.61;100.00;95528.16;1022823;29;20023;-70
2022/08/05 02:00:29;;;;;;;8.57;3.47;;;;;;;19.59;100.00;95527.72;1023558;28;20404;-71
2022/08/05 02:00:59;;;;;;;9.90;3.65;;;;;;;19.58;100.00;95528.81;1019424;29;20034;-71
2022/08/05 02:01:31;;;;;;;6.97;3.88;;;;;;;19.53;100.00;95525.25;1018745;29;20028;-72
2022/08/05 02:02:01;;;;;;;7.10;3.80;;;;;;;19.52;100.00;95526.34;1019213;29;20027;-71
2022/08/05 02:02:32;;;;;;;4.60;3.60;;;;;;;19.49;100.00;95527.00;1019239;29;20482;-70
2022/08/05 02:03:10;;;;;;;5.97;3.55;;;;;;;19.51;100.00;95534.66;1023238;28;20058;-71
2022/08/05 02:03:43;;;;;;;10.52;4.78;;;;;;;19.48;100.00;95530.78;1019428;29;20101;-70
2022/08/05 02:04:13;;;;;;;4.38;3.47;;;;;;;19.51;100.00;95524.78;1027091;28;20026;-71
2022/08/05 02:04:43;;;;;;;4.18;3.30;;;;;;;19.56;100.00;95521.16;1021730;28;20015;-71
2022/08/05 02:05:14;;;;;;;4.65;3.15;;;;;;;19.54;100.00;95512.72;1023194;28;20082;-72
2022/08/05 02:05:44;;;;;;;6.50;3.20;;;;;;;19.62;100.00;95519.09;1027440;28;20038;-71
2022/08/05 02:06:15;;;;;;;5.65;3.25;;;;;;;19.69;100.00;95519.38;1021686;29;20469;-70
2022/08/05 02:06:45;;;;;;;5.22;3.22;;;;;;;19.72;100.00;95513.41;1023202;28;20019;-70
2022/08/05 02:07:16;;;;;;;4.07;3.35;;;;;;;19.77;100.00;95516.63;1027137;28;20023;-70
2022/08/05 02:07:47;;;;;;;4.53;3.30;;;;;;;19.82;100.00;95513.00;1031409;28;20084;-71
2022/08/05 02:08:17;;;;;;;5.30;3.53;;;;;;;19.86;100.00;95515.78;1034910;28;20101;-70
2022/08/05 02:08:48;;;;;;;7.60;3.65;;;;;;;19.89;100.00;95515.91;1031185;28;20096;-71
2022/08/05 02:09:18;;;;;;;3.03;2.83;;;;;;;19.89;100.00;95507.91;1019399;29;20015;-71
2022/08/05 02:09:49;;;;;;;7.40;3.80;;;;;;;19.97;100.00;95517.69;1022408;28;20030;-71
2022/08/05 02:10:20;;;;;;;6.75;3.95;;;;;;;19.88;100.00;95494.91;1019369;29;20034;-71
2022/08/05 02:10:53;;;;;;;4.22;3.67;;;;;;;20.05;100.00;95516.06;1019392;29;20050;-70
2022/08/05 02:11:23;;;;;;;4.28;3.40;;;;;;;20.06;100.00;95511.53;1018341;29;20627;-71
2022/08/05 02:12:04;;;;;;;7.50;3.45;;;;;;;20.02;100.00;95500.75;1027249;28;20081;-71
2022/08/05 02:12:43;;;;;;;5.13;3.33;;;;;;;20.10;100.00;95517.75;1019298;29;20031;-71
2022/08/05 02:13:16;;;;;;;5.15;3.55;;;;;;;20.12;100.00;95512.84;1020813;28;20023;-73
2022/08/05 02:14:04;;;;;;;4.60;3.10;;;;;;;20.13;100.00;95514.44;1019456;29;20703;-71
2022/08/05 02:14:43;;;;;;;9.15;3.90;;;;;;;19.99;100.00;95493.41;1019123;29;20023;-70
2022/08/05 02:15:29;;;;;;;5.72;3.17;;;;;;;20.09;100.00;95505.53;1015248;29;20028;-71
2022/08/05 02:16:21;;;;;;;11.70;3.72;;;;;;;20.07;100.00;95515.75;1015389;29;20032;-70
2022/08/05 02:16:53;;;;;;;3.60;3.30;;;;;;;20.05;100.00;95510.72;1020854;28;20051;-70
2022/08/05 02:17:32;;;;;;;4.90;3.17;;;;;;;20.02;100.00;95522.84;1026404;28;20085;-70
2022/08/05 02:18:37;;;;;;;6.70;3.50;;;;;;;19.98;100.00;95519.25;1027147;28;20085;-71
2022/08/05 02:19:28;;;;;;;4.82;3.60;;;;;;;19.94;100.00;95521.00;1026597;28;20038;-71
2022/08/05 02:20:00;;;;;;;3.53;3.17;;;;;;;19.92;100.00;95512.59;1026615;28;20053;-72
2022/08/05 02:20:43;;;;;;;5.60;3.50;;;;;;;19.91;100.00;95520.91;1023234;28;20046;-71
2022/08/05 02:21:18;;;;;;;6.60;3.67;;;;;;;19.93;100.00;95519.47;1026511;28;20506;-71
2022/08/05 02:21:57;;;;;;;4.95;3.33;;;;;;;19.90;100.00;95519.34;1019378;29;20036;-70
2022/08/05 02:22:29;;;;;;;4.45;3.20;;;;;;;19.88;100.00;95516.22;1019256;29;20016;-70
2022/08/05 02:23:01;;;;;;;5.03;3.47;;;;;;;19.95;100.00;95527.13;1019139;29;20602;-70
2022/08/05 02:23:33;;;;;;;4.10;3.38;;;;;;;19.97;100.00;95527.56;1027188;28;20641;-71
2022/08/05 02:24:08;;;;;;;7.15;3.55;;;;;;;19.95;100.00;95522.59;1011614;29;20292;-71
2022/08/05 02:24:39;;;;;;;6.05;3.67;;;;;;;19.99;100.00;95534.16;1013439;29;20695;-71
2022/08/05 02:25:23;;;;;;;5.75;3.65;;;;;;;19.95;100.00;95522.59;1012017;29;20017;-71
2022/08/05 02:25:53;;;;;;;4.05;3.30;;;;;;;19.98;100.00;95527.25;1021394;29;20032;-71
2022/08/05 02:26:38;;;;;;;3.38;3.00;;;;;;;20.01;100.00;95531.91;1019249;29;20513;-69
2022/08/05 02:27:09;;;;;;;8.00;3.47;;;;;;;19.99;100.00;95523.50;1020056;29;20023;-70
2022/08/05 02:27:40;;;;;;;7.57;3.72;;;;;;;20.00;100.00;95532.25;1019386;29;20018;-71
2022/08/05 02:28:11;;;;;;;4.70;3.25;;;;;;;19.94;100.00;95521.00;1023390;29;20034;-70
2022/08/05 02:28:42;;;;;;;12.38;3.97;;;;;;;19.97;100.00;95520.38;1025636;28;20125;-72
2022/08/05 02:29:12;;;;;;;6.82;3.60;;;;;;;19.97;100.00;95523.03;1026913;28;20038;-70
2022/08/05 02:29:43;;;;;;;10.15;3.50;;;;;;;19.90;100.00;95528.09;1022629;29;20015;-70
2022/08/05 02:30:14;;;;;;;5.10;3.63;;;;;;;19.93;100.00;95530.13;1021397;29;20019;-71
2022/08/05 02:30:47;;;;;;;3.75;3.35;;;;;;;19.94;100.00;95526.34;1022346;28;20039;-71
2022/08/05 02:31:23;;;;;;;5.22;3.38;;;;;;;19.88;100.00;95522.31;1022461;28;20110;-70
2022/08/05 02:31:56;;;;;;;5.32;3.30;;;;;;;19.91;100.00;95523.56;1022804;29;20493;-71
2022/08/05 02:32:27;;;;;;;5.15;2.90;;;;;;;19.90;100.00;95519.34;1023951;28;20629;-74
2022/08/05 02:32:58;;;;;;;5.10;3.42;;;;;;;19.85;100.00;95516.88;1029284;28;20508;-70
2022/08/05 02:33:28;;;;;;;4.18;3.50;;;;;;;19.91;100.00;95527.00;1028053;28;20058;-71
2022/08/05 02:34:03;;;;;;;4.68;3.40;;;;;;;19.90;100.00;95524.66;1023985;28;20031;-71